Time;durP1;ratioP1;P1;durP2;ratioP2;P2;SDS_P1;SDS_P2;PMS_P1;PMS_P2;Temp;Humidity;BMP_temperature;BMP_pressure;BME280_temperature;BME280_humidity;BME280_pressure;Samples;Min_cycle;Max_cycle;Signal;HPM_P1;HPM_P2
2021/04/15 00:01:10;;;;;;;12.15;8.85;;;;;;;0.54;87.62;96908.40;1766136;81;21459;-88
2021/04/15 00:03:38;;;;;;;11.40;8.18;;;;;;;0.57;87.59;96906.70;1759564;80;21121;-89
2021/04/15 00:06:18;;;;;;;11.88;7.83;;;;;;;0.59;87.46;96901.28;1787523;80;21350;-89
2021/04/15 00:08:47;;;;;;;11.05;7.97;;;;;;;0.60;87.57;96901.57;1796288;78;21084;-89
2021/04/15 00:11:22;;;;;;;8.18;5.00;;;;;;;0.54;87.71;96891.45;1779898;80;21137;-90
2021/04/15 00:13:53;;;;;;;11.70;7.62;;;;;;;0.48;88.22;96900.62;1780519;80;21105;-90
2021/04/15 00:16:21;;;;;;;12.45;7.75;;;;;;;0.46;88.00;96890.89;1777824;80;21126;-89
2021/04/15 00:18:49;;;;;;;11.43;8.20;;;;;;;0.47;87.97;96899.02;1785955;78;21143;-90
2021/04/15 00:21:18;;;;;;;11.65;7.03;;;;;;;0.50;87.80;96892.08;1773660;80;21120;-89
2021/04/15 00:23:47;;;;;;;11.55;8.23;;;;;;;0.52;87.98;96890.05;1739950;82;21136;-89
2021/04/15 00:26:17;;;;;;;10.00;7.15;;;;;;;0.47;87.85;96885.47;1787099;80;21486;-89
2021/04/15 00:28:44;;;;;;;10.18;7.42;;;;;;;0.47;87.99;96888.58;1796244;79;21072;-90
2021/04/15 00:31:11;;;;;;;9.50;5.75;;;;;;;0.47;87.89;96888.58;1778246;80;21152;-90
2021/04/15 00:33:38;;;;;;;9.50;6.22;;;;;;;0.44;88.26;96881.98;1787287;79;21075;-90
2021/04/15 00:36:06;;;;;;;7.70;5.27;;;;;;;0.42;88.06;96883.17;1767434;80;21530;-89
2021/04/15 00:38:34;;;;;;;8.55;6.60;;;;;;;0.41;88.35;96874.55;1759729;80;21110;-90
2021/04/15 00:41:02;;;;;;;10.32;5.58;;;;;;;0.39;88.23;96875.27;1775200;80;21164;-90
2021/04/15 00:43:34;;;;;;;9.03;5.50;;;;;;;0.36;88.61;96876.19;1780642;80;21103;-89
2021/04/15 00:46:21;;;;;;;7.55;5.85;;;;;;;0.35;88.52;96875.39;1786875;80;21499;-90
2021/04/15 00:48:48;;;;;;;9.58;5.78;;;;;;;0.34;88.85;96873.78;1788439;80;21098;-89
2021/04/15 00:51:35;;;;;;;8.55;6.15;;;;;;;0.33;88.88;96881.31;1779367;80;21154;-91
2021/04/15 00:54:11;;;;;;;8.33;5.40;;;;;;;0.33;88.85;96884.42;1801746;78;21072;-88
2021/04/15 00:56:38;;;;;;;4.95;3.90;;;;;;;0.31;89.11;96884.63;1743631;79;21521;-89
2021/04/15 00:59:08;;;;;;;6.58;3.27;;;;;;;0.30;89.12;96881.73;1755115;80;21478;-89
2021/04/15 01:01:36;;;;;;;5.22;3.52;;;;;;;0.29;89.16;96876.22;1802740;78;21100;-89
2021/04/15 01:04:04;;;;;;;3.62;2.52;;;;;;;0.25;89.34;96878.92;1749036;79;21111;-88
2021/04/15 01:06:32;;;;;;;2.60;2.02;;;;;;;0.22;89.36;96882.75;1778880;80;21499;-90
2021/04/15 01:09:00;;;;;;;7.15;4.70;;;;;;;0.19;89.44;96868.83;1782609;79;21249;-89
2021/04/15 01:12:04;;;;;;;2.98;2.33;;;;;;;0.17;89.50;96877.87;1767165;80;21131;-88
2021/04/15 01:15:04;;;;;;;4.85;3.35;;;;;;;0.16;89.63;96864.03;1769314;80;21138;-89
2021/04/15 01:17:40;;;;;;;2.35;2.10;;;;;;;0.14;89.71;96880.39;1758561;80;21097;-89
2021/04/15 01:20:29;;;;;;;4.80;3.20;;;;;;;0.12;89.86;96873.75;1773503;79;21136;-88
2021/04/15 01:23:39;;;;;;;4.65;3.30;;;;;;;0.11;89.87;96872.16;1773649;80;21119;-88
2021/04/15 01:26:53;;;;;;;6.95;2.67;;;;;;;0.16;89.97;96875.77;1791571;79;23270;-89
2021/04/15 01:29:42;;;;;;;4.87;3.45;;;;;;;0.11;89.85;96869.55;1754999;80;21597;-90
2021/04/15 01:32:24;;;;;;;5.30;2.75;;;;;;;0.13;89.70;96877.95;1728122;82;21128;-90
2021/04/15 01:35:16;;;;;;;6.00;4.37;;;;;;;0.13;89.78;96861.81;1728965;82;21142;-90
2021/04/15 01:37:51;;;;;;;7.90;3.62;;;;;;;0.11;89.66;96866.44;1716896;82;21127;-90
2021/04/15 01:40:42;;;;;;;6.67;3.67;;;;;;;0.15;89.58;96864.24;1713227;82;21191;-89
2021/04/15 01:43:13;;;;;;;;;;;;;;;0.14;89.51;96862.14;1699011;82;21119;-89
2021/04/15 01:45:44;;;;;;;3.62;2.90;;;;;;;0.12;89.71;96843.27;1712407;82;20170;-90
2021/04/15 01:48:29;;;;;;;9.58;2.65;;;;;;;0.10;89.78;96854.91;1713971;82;21156;-91
2021/04/15 01:51:07;;;;;;;3.95;2.80;;;;;;;0.08;89.92;96845.20;1728871;82;21561;-89
2021/04/15 01:53:45;;;;;;;3.35;2.25;;;;;;;0.06;90.09;96853.73;1669104;84;21159;-89
2021/04/15 01:56:35;;;;;;;4.33;3.10;;;;;;;0.05;90.00;96848.23;1677866;84;21148;-90
2021/04/15 01:59:17;;;;;;;3.50;2.70;;;;;;;0.04;89.96;96853.94;1640180;87;21159;-89
2021/04/15 02:01:49;;;;;;;5.90;3.12;;;;;;;0.05;89.96;96850.33;1656091;85;21148;-89
2021/04/15 02:04:21;;;;;;;6.30;2.83;;;;;;;0.05;89.98;96846.92;1681335;84;21205;-88
2021/04/15 02:06:53;;;;;;;3.90;2.58;;;;;;;0.04;89.82;96850.03;1678660;84;21169;-89
2021/04/15 02:09:24;;;;;;;2.87;2.35;;;;;;;0.04;89.96;96851.34;1670368;84;21109;-89
2021/04/15 02:12:02;;;;;;;5.28;3.08;;;;;;;0.02;89.99;96840.83;1687617;84;21304;-88
2021/04/15 02:14:34;;;;;;;2.83;2.27;;;;;;;-0.01;90.02;96851.93;1646914;84;21162;-88
2021/04/15 02:17:05;;;;;;;2.47;1.67;;;;;;;-0.01;90.07;96844.11;1704818;84;21148;-88
2021/04/15 02:19:47;;;;;;;5.37;2.80;;;;;;;-0.03;90.27;96837.00;1677698;84;21147;-89
2021/04/15 02:22:40;;;;;;;3.27;2.20;;;;;;;-0.05;90.26;96848.14;1666455;84;21701;-89
2021/04/15 02:25:29;;;;;;;3.47;2.02;;;;;;;-0.06;90.27;96838.73;1673685;84;21176;-88
2021/04/15 02:28:26;;;;;;;1.90;1.37;;;;;;;-0.07;90.38;96838.43;1671862;84;21137;-88
2021/04/15 02:33:48;;;;;;;4.20;2.95;;;;;;;-0.05;90.35;96840.33;1797809;78;23039;-88
2021/04/15 02:36:17;;;;;;;3.15;2.67;;;;;;;-0.10;90.28;96833.63;1712468;82;21289;-90
2021/04/15 02:39:07;;;;;;;5.42;2.87;;;;;;;-0.09;90.35;96834.44;1708914;82;21275;-88
2021/04/15 02:41:36;;;;;;;;;;;;;;;-0.11;90.36;96837.25;1742047;81;21122;-88
2021/04/15 02:44:10;;;;;;;3.50;1.98;;;;;;;-0.11;90.40;96835.95;1768246;81;20341;-90
2021/04/15 02:46:44;;;;;;;3.37;2.90;;;;;;;-0.13;90.50;96837.96;1755239;81;21104;-88
2021/04/15 02:49:15;;;;;;;3.27;2.10;;;;;;;-0.14;90.47;96844.65;1760355;81;21142;-90
2021/04/15 02:51:56;;;;;;;3.90;2.00;;;;;;;-0.15;90.52;96838.64;1732097;81;21519;-88
2021/04/15 02:54:37;;;;;;;3.55;2.85;;;;;;;-0.16;90.46;96837.55;1724530;82;21141;-88
2021/04/15 02:57:21;;;;;;;2.65;1.70;;;;;;;-0.17;90.45;96830.23;1733325;82;21521;-89
2021/04/15 03:00:09;;;;;;;3.42;2.05;;;;;;;-0.17;90.58;96827.63;1724730;82;21249;-89
2021/04/15 03:02:40;;;;;;;3.52;2.87;;;;;;;-0.18;90.58;96842.97;1712465;82;21120;-89
2021/04/15 03:05:18;;;;;;;1.92;1.75;;;;;;;-0.18;90.61;96833.84;1738104;82;21142;-88
2021/04/15 03:07:48;;;;;;;3.25;1.95;;;;;;;-0.17;90.55;96834.14;1749879;81;21148;-89
2021/04/15 03:10:20;;;;;;;2.30;1.60;;;;;;;-0.18;90.55;96832.55;1721346;82;22374;-88
2021/04/15 03:12:55;;;;;;;2.95;1.70;;;;;;;-0.18;90.62;96833.84;1731792;82;21105;-89
2021/04/15 03:15:29;;;;;;;3.22;2.75;;;;;;;-0.18;90.58;96835.65;1763042;81;21139;-88
2021/04/15 03:18:00;;;;;;;3.50;1.98;;;;;;;-0.19;90.47;96837.45;1734562;82;21268;-88
2021/04/15 03:20:32;;;;;;;4.37;2.95;;;;;;;-0.19;90.53;96832.25;1754616;80;21156;-89
2021/04/15 03:23:08;;;;;;;4.20;2.75;;;;;;;-0.18;90.50;96829.14;1757471;80;21121;-89
2021/04/15 03:25:35;;;;;;;4.60;1.60;;;;;;;-0.18;90.42;96839.06;1760618;81;21516;-88
2021/04/15 03:28:18;;;;;;;2.12;1.87;;;;;;;-0.18;90.48;96831.23;1746876;81;21133;-88
2021/04/15 03:30:50;;;;;;;5.10;3.02;;;;;;;-0.21;90.52;96832.95;1746701;81;21160;-89
2021/04/15 03:33:26;;;;;;;2.22;2.00;;;;;;;-0.19;90.39;96831.45;1751263;81;21525;-88
2021/04/15 03:36:21;;;;;;;5.70;2.25;;;;;;;-0.20;90.56;96828.55;1737794;81;21454;-88
2021/04/15 03:38:58;;;;;;;2.87;1.92;;;;;;;-0.20;90.64;96836.36;1754298;81;21126;-88
2021/04/15 03:41:36;;;;;;;2.20;2.00;;;;;;;-0.22;90.70;96825.34;1773958;81;21130;-88
2021/04/15 03:44:36;;;;;;;2.60;1.70;;;;;;;-0.23;90.74;96833.67;1748813;81;21513;-88
2021/04/15 03:47:14;;;;;;;4.05;2.40;;;;;;;-0.23;90.81;96838.87;1754565;81;21129;-88
2021/04/15 03:50:01;;;;;;;2.55;2.12;;;;;;;-0.23;90.74;96834.17;1759363;81;21270;-88
2021/04/15 03:52:42;;;;;;;2.22;1.47;;;;;;;-0.24;90.78;96831.27;1767063;81;21152;-89
2021/04/15 03:55:20;;;;;;;3.70;2.72;;;;;;;-0.25;90.85;96838.28;1732088;81;21097;-88
2021/04/15 03:57:51;;;;;;;3.72;2.37;;;;;;;-0.23;90.84;96851.10;1759984;81;21274;-88
2021/04/15 04:00:21;;;;;;;;;;;;;;;-0.25;90.88;96836.98;1765669;81;21317;-89
2021/04/15 04:02:58;;;;;;;;;;;;;;;-0.23;90.88;96837.58;1774521;81;20367;-89
2021/04/15 04:05:47;;;;;;;4.42;2.98;;;;;;;-0.24;90.88;96839.88;1701967;82;20131;-87
2021/04/15 04:08:19;;;;;;;3.65;2.33;;;;;;;-0.23;90.89;96844.09;1733315;82;21546;-89
2021/04/15 04:10:48;;;;;;;2.33;1.98;;;;;;;-0.23;90.94;96841.48;1752479;81;21502;-88
2021/04/15 04:13:32;;;;;;;2.60;2.05;;;;;;;-0.22;90.93;96832.66;1746132;81;21184;-89
2021/04/15 04:16:24;;;;;;;2.42;1.62;;;;;;;-0.22;90.87;96843.08;1757639;81;21515;-88
2021/04/15 04:19:18;;;;;;;3.70;2.70;;;;;;;-0.21;90.91;96842.08;1755324;81;21452;-89
2021/04/15 04:22:05;;;;;;;9.33;4.78;;;;;;;-0.18;90.81;96840.86;1748819;81;21134;-88
2021/04/15 04:24:56;;;;;;;3.67;2.30;;;;;;;-0.18;90.81;96833.05;1760592;81;21468;-89
2021/04/15 04:27:44;;;;;;;2.17;1.98;;;;;;;-0.18;90.85;96836.45;1748426;81;21107;-88
2021/04/15 04:30:30;;;;;;;6.90;3.42;;;;;;;-0.16;90.70;96831.83;1770897;81;21290;-88
2021/04/15 04:33:02;;;;;;;5.08;3.70;;;;;;;-0.14;90.57;96839.44;1757816;80;21562;-89
2021/04/15 04:35:34;;;;;;;5.90;3.17;;;;;;;-0.11;90.53;96846.37;1747623;81;21161;-88
2021/04/15 04:38:11;;;;;;;3.60;2.77;;;;;;;-0.10;90.48;96844.06;1735609;82;21151;-88
2021/04/15 04:40:50;;;;;;;3.58;1.67;;;;;;;-0.08;90.41;96849.86;1755660;81;21133;-88
2021/04/15 04:43:32;;;;;;;3.27;2.20;;;;;;;-0.07;90.34;96851.96;1743818;82;21928;-89
2021/04/15 04:46:04;;;;;;;5.22;3.12;;;;;;;-0.08;90.36;96844.65;1745353;81;21271;-88
2021/04/15 04:48:35;;;;;;;4.20;2.85;;;;;;;-0.05;90.42;96853.86;1744335;81;21608;-89
2021/04/15 04:51:08;;;;;;;3.72;2.25;;;;;;;-0.03;90.23;96853.95;1742857;81;21492;-88
2021/04/15 04:53:40;;;;;;;3.42;2.95;;;;;;;-0.02;90.01;96840.41;1755179;81;21125;-89
2021/04/15 04:56:30;;;;;;;5.05;3.45;;;;;;;-0.03;89.99;96843.52;1750233;81;21264;-88
2021/04/15 04:59:05;;;;;;;5.28;3.15;;;;;;;0.01;89.92;96843.14;1744336;82;21292;-87
2021/04/15 05:01:32;;;;;;;4.47;3.15;;;;;;;0.00;89.75;96843.64;1744236;82;21255;-86
2021/04/15 05:04:04;;;;;;;2.22;1.80;;;;;;;0.01;89.53;96845.74;1753788;81;21244;-86
2021/04/15 05:06:36;;;;;;;6.20;2.65;;;;;;;0.03;89.46;96851.04;1749871;81;21137;-87
2021/04/15 05:09:26;;;;;;;2.10;1.67;;;;;;;0.03;89.36;96842.42;1744259;82;21280;-88
2021/04/15 05:11:54;;;;;;;3.67;2.75;;;;;;;0.04;89.20;96856.55;1750035;81;21491;-88
2021/04/15 05:14:26;;;;;;;3.12;2.22;;;;;;;0.05;89.17;96850.83;1754713;81;21113;-87
2021/04/15 05:17:23;;;;;;;2.85;2.10;;;;;;;0.06;89.02;96845.41;1745949;81;21090;-88
2021/04/15 05:19:51;;;;;;;4.65;3.10;;;;;;;0.07;88.98;96849.62;1755055;81;21125;-87
2021/04/15 05:22:31;;;;;;;5.12;2.80;;;;;;;0.07;88.97;96844.41;1744356;81;21177;-87
2021/04/15 05:25:15;;;;;;;3.52;2.75;;;;;;;0.08;88.81;96847.30;1751668;81;21119;-88
2021/04/15 05:27:43;;;;;;;3.67;2.20;;;;;;;0.08;88.62;96844.70;1757835;80;21104;-87
2021/04/15 05:30:40;;;;;;;3.42;2.40;;;;;;;0.09;88.50;96844.19;1766554;81;21488;-86
2021/04/15 05:33:23;;;;;;;3.85;2.10;;;;;;;0.10;88.42;96851.00;1745011;81;21166;-87
2021/04/15 05:36:05;;;;;;;3.30;2.33;;;;;;;0.10;88.47;96843.19;1753265;81;21486;-87
2021/04/15 05:38:43;;;;;;;2.80;1.65;;;;;;;0.11;88.34;96848.69;1723421;82;21219;-87
2021/04/15 05:41:27;;;;;;;4.70;2.17;;;;;;;0.11;88.28;96841.67;1729618;82;21641;-88
2021/04/15 05:43:59;;;;;;;3.87;2.52;;;;;;;0.11;88.17;96844.28;1741966;81;21116;-88
2021/04/15 05:46:38;;;;;;;2.67;2.20;;;;;;;0.14;88.17;96854.80;1751499;81;21482;-87
2021/04/15 05:49:06;;;;;;;3.10;2.35;;;;;;;0.16;88.15;96852.30;1742291;81;21151;-87
2021/04/15 05:51:57;;;;;;;2.45;2.02;;;;;;;0.16;87.98;96842.38;1763769;81;21540;-87
2021/04/15 05:54:27;;;;;;;2.77;2.35;;;;;;;0.14;87.88;96851.71;1737225;81;21139;-87
2021/04/15 05:57:10;;;;;;;3.35;2.02;;;;;;;0.16;87.97;96852.30;1747319;81;21193;-88
2021/04/15 05:59:49;;;;;;;3.02;2.15;;;;;;;0.17;87.80;96844.78;1738161;81;21136;-87
2021/04/15 06:02:45;;;;;;;3.47;2.55;;;;;;;0.17;87.62;96847.89;1742556;81;21122;-87
2021/04/15 06:05:18;;;;;;;2.98;2.52;;;;;;;0.19;87.45;96852.39;1765469;81;21454;-87
2021/04/15 06:07:48;;;;;;;4.25;2.40;;;;;;;0.23;87.49;96845.75;1757833;81;21446;-87
2021/04/15 06:10:21;;;;;;;2.00;1.77;;;;;;;0.25;87.29;96845.03;1758237;81;21157;-88
2021/04/15 06:13:26;;;;;;;3.85;2.50;;;;;;;0.26;87.13;96841.41;1762904;81;21117;-88
2021/04/15 06:16:02;;;;;;;4.25;2.27;;;;;;;0.29;87.08;96847.04;1771167;81;21107;-87
2021/04/15 06:18:37;;;;;;;3.05;1.98;;;;;;;0.32;86.81;96844.52;1759715;81;21153;-87
2021/04/15 06:21:24;;;;;;;3.37;2.10;;;;;;;0.32;86.69;96843.21;1765833;81;21113;-87
2021/04/15 06:24:02;;;;;;;2.50;1.87;;;;;;;0.32;86.73;96847.13;1718016;82;21107;-86
2021/04/15 06:26:37;;;;;;;2.17;1.60;;;;;;;0.32;86.67;96854.14;1738905;81;21136;-86
2021/04/15 06:29:10;;;;;;;3.12;2.42;;;;;;;0.33;86.65;96846.62;1720401;82;21168;-86
2021/04/15 06:31:42;;;;;;;2.87;2.27;;;;;;;0.32;86.67;96840.60;1731000;81;21141;-86
2021/04/15 06:34:11;;;;;;;3.30;1.90;;;;;;;0.34;86.70;96835.18;1761823;80;21470;-86
2021/04/15 06:36:47;;;;;;;4.33;2.27;;;;;;;0.34;86.68;96834.67;1748472;80;21164;-87
2021/04/15 06:39:35;;;;;;;2.80;2.30;;;;;;;0.36;86.70;96838.37;1773879;80;21410;-87
2021/04/15 06:42:41;;;;;;;5.62;2.98;;;;;;;0.42;86.69;96838.33;1732436;81;21115;-88
2021/04/15 06:45:34;;;;;;;2.90;2.08;;;;;;;0.43;86.54;96830.03;1745328;81;21119;-87
2021/04/15 06:48:33;;;;;;;4.53;3.47;;;;;;;0.43;86.27;96833.44;1735157;81;21082;-87
2021/04/15 06:51:42;;;;;;;7.30;5.35;;;;;;;0.44;86.35;96827.72;1745616;81;21107;-86
2021/04/15 06:54:15;;;;;;;5.65;3.47;;;;;;;0.46;86.29;96821.78;1754165;81;21086;-87
2021/04/15 06:57:17;;;;;;;4.25;2.95;;;;;;;0.44;86.17;96823.30;1740232;81;21493;-87
2021/04/15 07:00:06;;;;;;;3.60;3.25;;;;;;;0.47;86.25;96828.59;1751586;81;21117;-86
2021/04/15 07:03:18;;;;;;;3.98;3.20;;;;;;;0.51;86.16;96830.57;1761040;80;21123;-86
2021/04/15 07:05:51;;;;;;;3.52;2.92;;;;;;;0.51;86.13;96830.57;1749320;81;21462;-86
2021/04/15 07:09:01;;;;;;;5.35;3.20;;;;;;;0.51;86.13;96830.57;1747294;81;21527;-86
2021/04/15 07:12:00;;;;;;;3.75;2.22;;;;;;;0.52;86.13;96826.95;1740960;81;21130;-86
2021/04/15 07:14:51;;;;;;;3.50;1.73;;;;;;;0.55;85.90;96834.35;1742216;80;21161;-86
2021/04/15 07:17:42;;;;;;;5.80;4.05;;;;;;;0.56;85.86;96832.06;1718480;81;21490;-87
2021/04/15 07:20:54;;;;;;;2.67;2.00;;;;;;;0.56;85.71;96832.55;1746378;81;21146;-87
2021/04/15 07:24:04;;;;;;;3.47;2.70;;;;;;;0.57;85.65;96834.97;1718585;83;21240;-87
2021/04/15 07:27:21;;;;;;;3.87;2.95;;;;;;;0.59;85.42;96830.34;1762116;80;21129;-86
2021/04/15 07:30:16;;;;;;;4.55;2.98;;;;;;;0.63;85.60;96834.62;1744426;81;21489;-86
2021/04/15 07:32:52;;;;;;;2.20;2.00;;;;;;;0.66;85.54;96830.79;1726116;81;21123;-87
2021/04/15 07:35:37;;;;;;;2.98;2.00;;;;;;;0.69;85.35;96823.34;1740311;81;21133;-87
2021/04/15 07:38:20;;;;;;;3.90;2.60;;;;;;;0.69;85.35;96823.34;1738030;81;21088;-86
2021/04/15 07:41:14;;;;;;;2.83;2.00;;;;;;;0.70;85.18;96827.55;1708580;84;21310;-86
2021/04/15 07:44:34;;;;;;;3.92;2.70;;;;;;;0.75;84.89;96832.95;1805121;78;23556;-86
2021/04/15 07:47:22;;;;;;;7.53;2.45;;;;;;;0.68;84.88;96833.48;1759394;80;21145;-87
2021/04/15 07:50:17;;;;;;;3.17;2.22;;;;;;;0.68;84.88;96833.48;1737063;80;21102;-87
2021/04/15 07:53:05;;;;;;;4.20;2.70;;;;;;;0.79;84.85;96851.08;1757575;81;21465;-87
2021/04/15 07:56:16;;;;;;;2.20;1.87;;;;;;;0.81;84.66;96849.06;1730560;81;21281;-87
2021/04/15 07:59:08;;;;;;;2.35;2.10;;;;;;;0.82;84.34;96831.59;1721894;81;21119;-87
2021/04/15 08:02:15;;;;;;;4.15;2.05;;;;;;;0.82;84.21;96847.25;1744315;81;21269;-88
2021/04/15 08:05:19;;;;;;;3.95;2.45;;;;;;;0.81;84.31;96849.06;1732590;81;21649;-87
2021/04/15 08:08:22;;;;;;;4.05;2.77;;;;;;;0.87;84.15;96844.83;1725779;81;21091;-87
2021/04/15 08:11:15;;;;;;;3.35;2.67;;;;;;;0.88;84.26;96858.97;1747460;81;21254;-88
2021/04/15 08:14:24;;;;;;;4.17;2.90;;;;;;;0.90;84.14;96853.53;1755123;81;21231;-88
2021/04/15 08:17:22;;;;;;;5.20;2.90;;;;;;;0.83;84.09;96838.41;1743969;81;21273;-88
2021/04/15 08:20:24;;;;;;;3.75;2.40;;;;;;;0.86;84.02;96827.57;1728808;81;21127;-88
2021/04/15 08:23:32;;;;;;;2.50;1.75;;;;;;;0.86;84.02;96827.57;1735765;81;21139;-88
2021/04/15 08:26:39;;;;;;;4.37;2.80;;;;;;;0.87;83.77;96823.95;1757786;81;21088;-88
2021/04/15 08:29:34;;;;;;;3.47;2.62;;;;;;;1.02;83.68;96836.19;1730984;81;21123;-88
2021/04/15 08:32:51;;;;;;;2.33;1.98;;;;;;;1.03;83.22;96840.90;1742183;81;21132;-88
2021/04/15 08:35:44;;;;;;;3.62;2.60;;;;;;;1.07;83.39;96852.00;1732529;81;21180;-88
2021/04/15 08:38:43;;;;;;;4.40;2.35;;;;;;;1.10;83.24;96854.69;1753558;81;21472;-87
2021/04/15 08:41:44;;;;;;;3.12;2.10;;;;;;;1.11;82.93;96857.09;1742680;81;21139;-87
2021/04/15 08:45:04;;;;;;;4.45;2.30;;;;;;;1.17;82.44;96854.16;1743276;81;21475;-87
2021/04/15 08:47:47;;;;;;;4.45;2.50;;;;;;;1.17;82.44;96854.16;1736182;81;21123;-89
2021/04/15 08:50:38;;;;;;;5.12;3.83;;;;;;;1.23;82.43;96825.07;1733612;81;21140;-87
2021/04/15 09:07:15;;;;;;;6.00;3.22;;;;;;;1.65;80.55;96836.05;1771241;79;22914;-83
2021/04/15 09:10:02;;;;;;;7.00;3.47;;;;;;;1.54;80.25;96852.42;1759734;81;21128;-84
2021/04/15 09:12:50;;;;;;;5.37;2.50;;;;;;;1.46;80.24;96851.41;1761051;80;21191;-84
2021/04/15 09:15:37;;;;;;;4.72;2.87;;;;;;;1.51;80.67;96845.02;1767795;80;21497;-84
2021/04/15 09:18:26;;;;;;;3.17;2.17;;;;;;;1.48;80.44;96854.09;1769342;81;21171;-84
2021/04/15 09:21:29;;;;;;;3.50;2.08;;;;;;;1.43;80.10;96844.00;1758334;81;21126;-85
2021/04/15 09:24:30;;;;;;;4.42;3.25;;;;;;;1.36;80.03;96855.00;1753126;81;21181;-85
2021/04/15 09:27:31;;;;;;;4.67;3.30;;;;;;;1.40;80.39;96854.86;1773850;80;21119;-84
2021/04/15 09:30:23;;;;;;;4.47;2.42;;;;;;;1.43;80.58;96849.23;1758060;81;21520;-84
2021/04/15 09:33:18;;;;;;;3.65;2.58;;;;;;;1.48;80.50;96854.09;1753350;81;21499;-85
2021/04/15 09:35:51;;;;;;;4.87;3.50;;;;;;;1.55;80.34;96851.44;1758518;80;21184;-84
2021/04/15 09:50:54;;;;;;;5.90;3.80;;;;;;;1.91;79.77;96839.41;1799713;78;22443;-84
2021/04/15 09:54:11;;;;;;;4.47;2.87;;;;;;;1.88;79.67;96849.80;1769893;80;21158;-85
2021/04/15 09:57:06;;;;;;;9.98;4.92;;;;;;;1.90;79.76;96856.92;1756341;80;21110;-84
2021/04/15 10:00:07;;;;;;;5.67;3.37;;;;;;;1.99;79.43;96849.59;1748874;81;21130;-85
2021/04/15 10:02:54;;;;;;;9.30;4.67;;;;;;;1.98;79.19;96850.62;1773326;80;21540;-86
2021/04/15 10:06:16;;;;;;;9.20;5.15;;;;;;;1.98;79.00;96838.85;1870087;76;22922;-85
2021/04/15 10:08:57;;;;;;;13.72;7.30;;;;;;;1.92;79.28;96843.12;1825215;76;21072;-86
2021/04/15 10:12:05;;;;;;;11.90;6.08;;;;;;;1.97;79.55;96850.30;1827476;77;21217;-85
2021/04/15 10:15:16;;;;;;;13.93;6.72;;;;;;;2.05;79.96;96848.72;1838393;76;21134;-86
2021/04/15 10:18:24;;;;;;;16.42;7.08;;;;;;;2.19;80.01;96855.39;1829464;77;21135;-86
2021/04/15 10:21:06;;;;;;;15.53;8.95;;;;;;;2.40;80.01;96842.39;1829214;77;21502;-85
2021/04/15 10:23:53;;;;;;;8.25;4.60;;;;;;;2.59;79.45;96840.52;1827330;77;21090;-85
2021/04/15 10:26:53;;;;;;;14.23;7.28;;;;;;;2.54;78.77;96842.51;1845241;76;21272;-85
2021/04/15 10:30:11;;;;;;;10.48;6.33;;;;;;;2.49;78.24;96847.58;1800555;77;21095;-85
2021/04/15 10:33:06;;;;;;;7.42;5.03;;;;;;;2.40;77.69;96848.13;1858811;76;21226;-85
2021/04/15 10:36:18;;;;;;;10.32;5.28;;;;;;;2.37;78.00;96840.98;1863785;76;21130;-85
2021/04/15 10:39:05;;;;;;;7.30;3.60;;;;;;;2.34;77.94;96840.13;1849049;76;21136;-85
2021/04/15 10:42:06;;;;;;;10.28;6.42;;;;;;;2.39;77.75;96836.84;1786460;80;21174;-86
2021/04/15 10:45:29;;;;;;;5.22;3.00;;;;;;;2.42;78.08;96840.34;1784577;80;21088;-86
2021/04/15 10:48:24;;;;;;;6.53;4.05;;;;;;;2.33;77.17;96834.60;1754333;79;21716;-86
2021/04/15 10:51:25;;;;;;;6.20;4.08;;;;;;;2.17;77.49;96833.09;1781208;80;21138;-86
2021/04/15 10:54:06;;;;;;;11.80;5.75;;;;;;;2.13;77.44;96839.28;1783887;80;21139;-86
2021/04/15 10:56:45;;;;;;;6.60;4.08;;;;;;;2.22;77.54;96837.95;1782427;80;21423;-86
2021/04/15 10:59:35;;;;;;;6.67;3.22;;;;;;;2.34;77.54;96838.81;1770517;79;21286;-86
2021/04/15 11:02:32;;;;;;;7.15;4.10;;;;;;;2.29;77.12;96835.27;1769099;80;21314;-86
2021/04/15 11:05:22;;;;;;;4.92;2.85;;;;;;;2.22;77.44;96831.92;1753364;80;21498;-87
2021/04/15 11:07:50;;;;;;;3.85;2.40;;;;;;;2.11;77.47;96838.67;1753512;80;21129;-86
2021/04/15 11:10:30;;;;;;;5.25;3.30;;;;;;;1.91;77.51;96836.29;1764931;80;21644;-87
2021/04/15 11:13:21;;;;;;;7.87;3.85;;;;;;;1.81;78.21;96836.50;1785906;80;21483;-87
2021/04/15 11:15:52;;;;;;;7.95;5.67;;;;;;;1.75;78.75;96838.97;1770042;80;21103;-87
2021/04/15 11:18:31;;;;;;;7.00;4.28;;;;;;;1.81;79.18;96839.91;1776642;80;21095;-86
2021/04/15 11:21:25;;;;;;;9.63;5.47;;;;;;;1.87;79.05;96836.95;1801908;78;21445;-86
2021/04/15 11:23:57;;;;;;;6.28;4.65;;;;;;;1.99;79.17;96844.38;1775507;80;21171;-87
2021/04/15 11:26:47;;;;;;;7.47;4.72;;;;;;;2.07;78.85;96842.25;1786098;79;21111;-86
2021/04/15 11:29:46;;;;;;;7.17;4.83;;;;;;;2.26;79.07;96835.20;1839755;76;23055;-86
2021/04/15 11:32:42;;;;;;;7.85;4.92;;;;;;;2.34;78.54;96843.25;1793366;79;21099;-86
2021/04/15 11:35:20;;;;;;;5.87;4.35;;;;;;;2.38;77.84;96834.73;1802559;79;21090;-86
2021/04/15 11:38:13;;;;;;;5.25;3.90;;;;;;;2.36;77.44;96834.16;1810111;79;21579;-86
2021/04/15 11:40:51;;;;;;;4.55;2.70;;;;;;;2.26;77.50;96835.72;1779634;77;21144;-86
2021/04/15 11:43:26;;;;;;;6.72;3.20;;;;;;;2.25;77.57;96824.45;1782513;79;21110;-85
2021/04/15 11:45:56;;;;;;;8.18;5.17;;;;;;;2.25;77.81;96840.16;1798984;79;21304;-86
2021/04/15 11:48:29;;;;;;;7.58;4.42;;;;;;;2.35;78.18;96833.07;1793758;77;21143;-86
2021/04/15 11:51:19;;;;;;;10.58;5.97;;;;;;;2.42;77.91;96836.42;1784640;79;21166;-86
2021/04/15 11:53:57;;;;;;;6.10;4.10;;;;;;;2.45;77.85;96839.09;1775694;79;21113;-86
2021/04/15 11:56:33;;;;;;;5.92;3.47;;;;;;;2.49;77.67;96840.25;1792779;79;21142;-86
2021/04/15 11:59:27;;;;;;;9.15;5.72;;;;;;;2.43;77.67;96828.86;1797371;77;21191;-86
2021/04/15 12:02:01;;;;;;;9.75;5.28;;;;;;;2.41;77.96;96834.02;1777440;79;21247;-86
2021/04/15 12:04:29;;;;;;;11.33;5.53;;;;;;;2.48;78.27;96836.83;1774022;79;21126;-87
2021/04/15 12:07:05;;;;;;;9.63;5.60;;;;;;;2.52;78.23;96834.56;1790413;79;21167;-87
2021/04/15 12:09:37;;;;;;;11.03;6.10;;;;;;;2.60;78.41;96840.30;1799961;77;21133;-87
2021/04/15 12:12:18;;;;;;;7.47;4.97;;;;;;;2.76;78.45;96833.64;1792323;79;21500;-87
2021/04/15 12:14:46;;;;;;;9.80;5.50;;;;;;;2.80;77.63;96830.06;1763926;79;21237;-87
2021/04/15 12:17:28;;;;;;;7.92;4.97;;;;;;;2.81;77.63;96833.76;1776678;79;21172;-86
2021/04/15 12:20:13;;;;;;;7.30;4.62;;;;;;;2.85;77.60;96836.75;1776741;79;21144;-86
2021/04/15 12:23:20;;;;;;;3.10;2.80;;;;;;;2.98;77.51;96828.20;1779420;79;21144;-86
2021/04/15 12:25:59;;;;;;;4.33;3.33;;;;;;;2.94;76.25;96834.88;1784630;79;21481;-86
2021/04/15 12:28:52;;;;;;;4.42;3.08;;;;;;;2.73;76.46;96834.09;1785686;79;21510;-86
2021/04/15 12:31:28;;;;;;;4.42;3.42;;;;;;;2.70;76.19;96837.67;1783580;79;21125;-86
2021/04/15 12:34:19;;;;;;;6.05;3.50;;;;;;;2.78;76.59;96832.91;1785441;79;21273;-86
2021/04/15 12:36:58;;;;;;;5.65;3.00;;;;;;;2.87;76.38;96834.70;1784607;79;21201;-86
2021/04/15 12:40:05;;;;;;;4.33;3.05;;;;;;;2.82;76.29;96834.59;1796498;79;22423;-86
2021/04/15 12:42:39;;;;;;;41.28;13.85;;;;;;;2.60;76.29;96837.69;1750076;81;21112;-85
2021/04/15 12:45:27;;;;;;;5.50;3.58;;;;;;;2.48;76.93;96840.76;1744701;81;21119;-85
2021/04/15 12:47:57;;;;;;;4.67;3.00;;;;;;;2.52;76.82;96830.64;1736657;81;21493;-86
2021/04/15 12:50:28;;;;;;;5.47;3.15;;;;;;;2.46;76.26;96833.64;1746885;81;21506;-85
2021/04/15 12:52:57;;;;;;;5.40;3.62;;;;;;;2.42;76.33;96835.63;1745555;81;21540;-85
2021/04/15 12:55:27;;;;;;;4.20;3.10;;;;;;;2.42;76.67;96834.31;1748885;81;21141;-86
2021/04/15 12:57:58;;;;;;;6.17;3.30;;;;;;;2.46;76.74;96832.84;1754854;81;21300;-86
2021/04/15 13:00:40;;;;;;;5.35;3.70;;;;;;;2.39;77.07;96832.91;1758960;81;21530;-86
2021/04/15 13:03:12;;;;;;;5.28;3.42;;;;;;;2.45;77.18;96823.40;1748569;81;21470;-85
2021/04/15 13:05:48;;;;;;;7.08;3.87;;;;;;;2.42;77.24;96824.64;1750389;81;21633;-85
2021/04/15 13:08:36;;;;;;;5.78;3.65;;;;;;;2.46;77.32;96833.64;1753757;81;21156;-86
2021/04/15 13:11:17;;;;;;;3.87;3.00;;;;;;;2.52;76.96;96826.20;1756168;81;21107;-85
2021/04/15 13:13:52;;;;;;;5.05;3.50;;;;;;;2.52;76.36;96824.09;1757192;81;21641;-85
2021/04/15 13:16:42;;;;;;;3.98;2.95;;;;;;;2.52;76.34;96831.44;1739327;81;21168;-85
2021/04/15 13:19:27;;;;;;;5.40;3.07;;;;;;;2.72;76.18;96822.03;1744643;81;21147;-85
2021/04/15 13:22:21;;;;;;;6.40;4.35;;;;;;;2.72;75.79;96822.03;1753234;81;21103;-86
2021/04/15 13:24:56;;;;;;;6.15;3.60;;;;;;;2.78;76.07;96826.36;1754300;81;21115;-85
2021/04/15 13:28:00;;;;;;;5.37;3.77;;;;;;;2.92;75.70;96824.34;1755475;81;21296;-84